Time;durP1;ratioP1;P1;durP2;ratioP2;P2;SDS_P1;SDS_P2;PMS_P1;PMS_P2;Temp;Humidity;BMP_temperature;BMP_pressure;BME280_temperature;BME280_humidity;BME280_pressure;Samples;Min_cycle;Max_cycle;Signal;HPM_P1;HPM_P2
2022/02/25 00:00:07;;;;;;;;;1.00;1.00;;;;;4.56;63.44;101588.78;5027576;28;45574;-82
2022/02/25 00:02:32;;;;;;;;;4.25;3.00;;;;;4.32;63.80;101561.88;5016193;28;45746;-86
2022/02/25 00:04:58;;;;;;;;;2.50;2.00;;;;;4.35;63.80;101546.50;5028285;28;46708;-78
2022/02/25 00:07:23;;;;;;;;;2.00;2.00;;;;;4.78;64.07;101627.66;5027155;28;45467;-89
2022/02/25 00:09:49;;;;;;;;;2.00;2.00;;;;;5.72;63.83;101789.94;5013737;28;48093;-81
2022/02/25 00:12:14;;;;;;;;;1.50;1.50;;;;;4.87;63.92;101659.59;5017072;28;45603;-81
2022/02/25 00:14:39;;;;;;;;;1.00;1.00;;;;;5.08;63.78;101691.50;5014589;28;45535;-81
2022/02/25 00:17:05;;;;;;;;;0.00;0.00;;;;;5.35;63.62;101753.41;4997249;28;45539;-84
2022/02/25 00:19:30;;;;;;;;;1.00;1.00;;;;;5.66;63.85;101805.13;5014565;28;45381;-87
2022/02/25 00:21:55;;;;;;;;;5.25;2.50;;;;;5.52;63.94;101790.22;5014464;28;45296;-82
2022/02/25 00:24:21;;;;;;;;;1.75;1.75;;;;;5.40;63.91;101774.59;5014261;28;45345;-84
2022/02/25 00:26:46;;;;;;;;;2.00;1.67;;;;;5.52;63.88;101806.75;5014432;28;45307;-83
2022/02/25 00:29:11;;;;;;;;;1.25;1.00;;;;;4.41;63.90;101614.59;5014228;28;45465;-87
2022/02/25 00:31:37;;;;;;;;;1.25;1.25;;;;;5.16;63.97;101753.78;5014418;28;45307;-87
2022/02/25 00:34:02;;;;;;;;;1.75;0.00;;;;;5.06;63.86;101734.75;5014340;28;45434;-82
2022/02/25 00:36:27;;;;;;;;;5.75;3.00;;;;;5.52;63.96;101842.38;4996530;28;45580;-82
2022/02/25 00:38:53;;;;;;;;;2.75;1.75;;;;;5.05;64.13;101741.69;5013885;28;46313;-81
2022/02/25 00:41:18;;;;;;;;;3.00;2.00;;;;;4.65;64.19;101680.56;5014240;28;45392;-84
2022/02/25 00:43:44;;;;;;;;;2.75;2.50;;;;;5.49;64.34;101832.59;5014612;28;45264;-87
2022/02/25 00:46:09;;;;;;;;;0.75;0.00;;;;;4.87;64.27;101720.38;5031201;28;45897;-81
2022/02/25 00:48:35;;;;;;;;;1.25;1.25;;;;;4.79;64.21;101728.47;5033794;28;45489;-81
2022/02/25 00:51:00;;;;;;;;;1.00;1.00;;;;;5.29;64.29;101827.66;5033901;28;45455;-87
2022/02/25 00:53:25;;;;;;;;;1.75;1.50;;;;;5.25;64.41;101808.25;5030397;28;45744;-82
2022/02/25 00:55:51;;;;;;;;;5.67;2.67;;;;;5.31;64.29;101841.69;5014357;28;45441;-82
2022/02/25 00:58:16;;;;;;;;;3.25;1.25;;;;;4.88;64.79;101765.59;5016878;28;45459;-88
2022/02/25 01:00:42;;;;;;;;;4.50;3.00;;;;;5.24;64.31;101824.69;5021681;28;45595;-88
2022/02/25 01:03:07;;;;;;;;;1.00;1.00;;;;;4.35;64.46;101674.03;5037615;28;45360;-85
2022/02/25 01:05:33;;;;;;;;;1.00;1.00;;;;;5.23;64.47;101835.03;5036947;28;45348;-81
2022/02/25 01:08:03;;;;;;;;;1.00;1.00;;;;;5.25;64.57;101849.97;5036142;28;46142;-80
2022/02/25 01:10:29;;;;;;;;;2.00;1.00;;;;;5.23;64.57;101842.84;5036506;28;45678;-83
2022/02/25 01:12:54;;;;;;;;;2.75;2.00;;;;;4.80;64.58;101766.72;5036778;28;45385;-80
2022/02/25 01:15:19;;;;;;;;;2.67;2.00;;;;;5.01;64.68;101803.88;5036615;28;45281;-82
2022/02/25 01:17:45;;;;;;;;;2.25;2.00;;;;;5.01;64.59;101801.25;5036141;28;45411;-81
2022/02/25 01:20:10;;;;;;;;;2.33;2.33;;;;;5.05;64.78;101806.81;5036213;28;45421;-81
2022/02/25 01:22:36;;;;;;;;;2.00;1.25;;;;;4.77;64.83;101767.38;5035731;28;45446;-81
2022/02/25 01:25:02;;;;;;;;;2.00;2.00;;;;;5.29;64.71;101845.91;5018128;28;45544;-80
2022/02/25 01:27:30;;;;;;;;;2.25;2.00;;;;;5.33;64.75;101860.97;5036411;28;45512;-80
2022/02/25 01:29:56;;;;;;;;;1.50;0.75;;;;;5.23;64.74;101855.88;5018375;28;46067;-82
2022/02/25 01:32:22;;;;;;;;;1.25;1.25;;;;;5.27;64.69;101870.91;5033789;28;45487;-80
2022/02/25 01:34:47;;;;;;;;;1.75;1.75;;;;;5.18;64.82;101850.31;5024274;28;45449;-81
2022/02/25 01:37:12;;;;;;;;;2.00;1.00;;;;;4.98;64.82;101812.38;5035750;28;46504;-82
2022/02/25 01:39:38;;;;;;;;;1.75;1.75;;;;;5.21;64.82;101857.44;5017732;28;45430;-80
2022/02/25 01:42:07;;;;;;;;;1.00;1.00;;;;;4.66;64.83;101771.81;5030640;28;45619;-81
2022/02/25 01:44:32;;;;;;;;;3.00;1.00;;;;;4.86;65.08;101806.25;5016147;28;45416;-82
2022/02/25 01:46:59;;;;;;;;;1.50;0.75;;;;;4.73;65.13;101798.28;5016270;28;46196;-81
2022/02/25 01:49:26;;;;;;;;;1.50;1.00;;;;;4.81;65.26;101824.13;5015872;28;45306;-84
2022/02/25 01:51:57;;;;;;;;;0.75;0.00;;;;;4.50;65.26;101767.97;5016043;28;45385;-81
2022/02/25 01:54:23;;;;;;;;;1.00;1.00;;;;;3.87;65.23;101686.03;5015765;28;45532;-82
2022/02/25 01:56:49;;;;;;;;;2.00;1.50;;;;;4.09;65.17;101709.41;5014878;28;48532;-83
2022/02/25 01:59:15;;;;;;;;;2.00;1.00;;;;;4.98;65.52;101874.91;5016192;28;45639;-80
2022/02/25 02:01:41;;;;;;;;;2.00;1.00;;;;;4.61;65.31;101816.53;5016749;28;45519;-85
2022/02/25 02:04:07;;;;;;;;;2.00;2.00;;;;;4.45;65.71;101784.94;5016462;28;45467;-89
2022/02/25 02:06:33;;;;;;;;;1.75;1.00;;;;;4.91;65.66;101872.59;4998792;28;46536;-88
2022/02/25 02:08:58;;;;;;;;;2.00;1.00;;;;;4.32;65.52;101780.47;5015029;28;45274;-89
2022/02/25 02:11:29;;;;;;;;;4.00;1.00;;;;;4.07;65.85;101739.56;5016695;28;45218;-86
2022/02/25 02:13:55;;;;;;;;;1.00;1.00;;;;;3.93;65.80;101716.81;5016362;28;45527;-80
2022/02/25 02:16:20;;;;;;;;;2.00;2.00;;;;;4.48;65.93;101814.66;5016353;28;45470;-81
2022/02/25 02:18:46;;;;;;;;;1.00;1.00;;;;;4.55;65.90;101829.97;5016208;28;45282;-83
2022/02/25 02:21:11;;;;;;;;;1.00;0.50;;;;;4.38;65.93;101804.34;5016492;28;45372;-87
2022/02/25 02:23:37;;;;;;;;;2.25;1.00;;;;;4.20;65.95;101770.03;4998460;28;45490;-82
2022/02/25 02:26:02;;;;;;;;;0.75;0.00;;;;;3.34;66.08;101620.44;5016296;28;46235;-86
2022/02/25 02:28:28;;;;;;;;;4.50;3.00;;;;;4.70;66.26;101868.41;5016340;28;45277;-82
2022/02/25 02:30:53;;;;;;;;;1.00;1.00;;;;;4.76;66.27;101877.56;5016251;28;45273;-86
2022/02/25 02:33:20;;;;;;;;;3.50;1.00;;;;;4.76;66.29;101867.16;5016125;28;45415;-82
2022/02/25 02:35:45;;;;;;;;;2.00;1.00;;;;;4.69;66.49;101856.16;5016094;28;45565;-84
2022/02/25 02:38:11;;;;;;;;;3.00;1.00;;;;;4.67;66.40;101866.44;5015476;28;45939;-86
2022/02/25 02:40:37;;;;;;;;;2.00;1.00;;;;;4.74;66.65;101875.66;5015559;28;45885;-83
2022/02/25 02:43:02;;;;;;;;;1.00;1.00;;;;;4.43;66.56;101828.13;5025700;28;45481;-85
2022/02/25 02:45:28;;;;;;;;;2.25;1.25;;;;;4.73;66.68;101873.81;5015996;28;45683;-88
2022/02/25 02:47:53;;;;;;;;;1.25;1.25;;;;;4.28;66.53;101804.44;4998309;28;45470;-84
2022/02/25 02:50:19;;;;;;;;;2.00;1.25;;;;;4.72;66.69;101869.41;5016005;28;45564;-81
2022/02/25 02:52:44;;;;;;;;;1.50;1.50;;;;;4.72;66.55;101872.00;5015420;28;45420;-86
2022/02/25 02:55:09;;;;;;;;;2.00;1.00;;;;;4.37;66.70;101815.56;5016152;28;45482;-86
2022/02/25 02:57:35;;;;;;;;;1.00;1.00;;;;;4.23;66.89;101790.16;5015934;28;45432;-81
2022/02/25 03:00:00;;;;;;;;;1.25;1.00;;;;;4.25;67.07;101805.13;5016029;28;45329;-80
2022/02/25 03:02:26;;;;;;;;;1.00;0.00;;;;;4.24;67.21;101807.63;5016182;28;45222;-82
2022/02/25 03:04:51;;;;;;;;;1.75;1.75;;;;;4.68;66.88;101888.19;5015981;28;45657;-88
2022/02/25 03:07:17;;;;;;;;;1.67;1.00;;;;;4.58;67.18;101869.28;5015982;28;45570;-88
2022/02/25 03:09:42;;;;;;;;;2.00;1.00;;;;;4.30;67.57;101810.69;5015653;28;46096;-84
2022/02/25 03:12:08;;;;;;;;;1.33;1.33;;;;;4.21;67.25;101778.75;5015455;28;45621;-81
2022/02/25 03:14:36;;;;;;;;;3.00;0.00;;;;;4.34;67.39;101811.03;5015613;28;46351;-83
2022/02/25 03:17:02;;;;;;;;;2.50;1.00;;;;;4.68;67.17;101875.16;5015204;28;45829;-83
2022/02/25 03:19:27;;;;;;;;;1.00;1.00;;;;;3.87;67.03;101748.44;5015271;28;45353;-81
2022/02/25 03:21:53;;;;;;;;;2.25;2.00;;;;;4.08;67.28;101777.78;5015056;28;45281;-86
2022/02/25 03:24:18;;;;;;;;;1.50;1.25;;;;;4.61;67.50;101879.91;5013981;28;46343;-81
2022/02/25 03:26:43;;;;;;;;;2.00;2.00;;;;;4.61;67.49;101879.00;5014498;28;45403;-80
2022/02/25 03:29:10;;;;;;;;;2.00;1.33;;;;;4.42;67.65;101845.44;4997142;28;45381;-80
2022/02/25 03:31:35;;;;;;;;;3.00;2.25;;;;;4.02;67.70;101768.63;5014719;28;45240;-80
2022/02/25 03:34:01;;;;;;;;;0.50;0.00;;;;;4.38;67.66;101832.97;5015313;28;46400;-80
2022/02/25 03:36:26;;;;;;;;;1.00;1.00;;;;;4.09;67.49;101784.84;5014449;28;45466;-80
2022/02/25 03:38:52;;;;;;;;;2.00;1.25;;;;;4.35;67.63;101841.47;5018045;28;45773;-79
2022/02/25 03:41:18;;;;;;;;;2.75;2.00;;;;;4.58;67.61;101886.56;5025191;28;45491;-80
2022/02/25 03:43:43;;;;;;;;;1.25;1.00;;;;;4.26;67.31;101847.66;5027645;28;45526;-79
2022/02/25 03:46:09;;;;;;;;;1.00;1.00;;;;;4.37;67.79;101873.72;5025617;28;45583;-79
2022/02/25 03:48:34;;;;;;;;;2.00;1.00;;;;;4.46;67.97;101894.34;5007392;28;44798;-80
2022/02/25 03:51:00;;;;;;;;;0.25;0.25;;;;;4.19;67.80;101841.09;5004606;28;45492;-80
2022/02/25 03:53:25;;;;;;;;;1.00;1.00;;;;;4.35;68.16;101877.91;5003140;28;48404;-80
2022/02/25 03:55:51;;;;;;;;;1.00;0.25;;;;;3.60;68.00;101741.13;5023963;28;45574;-80
2022/02/25 03:58:16;;;;;;;;;3.00;1.67;;;;;4.49;68.30;101894.59;5023841;28;45427;-80
2022/02/25 04:00:41;;;;;;;;;1.00;1.00;;;;;4.24;68.23;101846.66;5023841;28;44862;-80
2022/02/25 04:03:07;;;;;;;;;1.00;1.00;;;;;4.40;68.53;101889.59;5023341;28;45768;-79
2022/02/25 04:05:32;;;;;;;;;1.00;1.00;;;;;4.35;68.23;101888.31;5023073;28;45491;-80
2022/02/25 04:07:58;;;;;;;;;1.00;1.00;;;;;4.46;68.16;101909.97;5026049;28;45324;-82
2022/02/25 04:10:23;;;;;;;;;1.00;1.00;;;;;4.43;68.41;101909.72;5031656;28;45263;-80
2022/02/25 04:12:48;;;;;;;;;1.00;1.00;;;;;3.61;68.42;101769.81;5032847;28;45486;-81
2022/02/25 04:15:14;;;;;;;;;1.00;1.00;;;;;4.42;68.32;101913.13;5034066;28;45266;-81
2022/02/25 04:17:39;;;;;;;;;0.50;0.50;;;;;4.40;68.76;101925.13;5016227;28;44829;-82
2022/02/25 04:20:06;;;;;;;;;3.00;3.00;;;;;3.68;68.74;101805.00;5033341;28;45875;-81
2022/02/25 04:22:32;;;;;;;;;3.00;3.00;;;;;4.13;68.51;101887.41;5029636;28;45392;-82
2022/02/25 04:24:57;;;;;;;;;1.25;1.00;;;;;4.36;68.62;101923.97;5012865;28;44948;-81
2022/02/25 04:27:23;;;;;;;;;1.00;1.00;;;;;3.82;68.59;101837.28;5030099;28;45219;-82
2022/02/25 04:29:48;;;;;;;;;1.25;1.00;;;;;3.97;68.71;101872.31;5011805;28;45605;-81
2022/02/25 04:32:14;;;;;;;;;2.00;1.25;;;;;4.35;68.82;101934.25;5011532;28;46353;-82
2022/02/25 04:34:39;;;;;;;;;1.75;1.75;;;;;3.69;68.92;101816.31;5021911;28;45394;-81
2022/02/25 04:37:05;;;;;;;;;1.50;1.00;;;;;4.35;68.65;101942.06;5021384;28;45500;-87
2022/02/25 04:39:30;;;;;;;;;2.00;1.00;;;;;4.24;68.72;101929.91;5021066;28;45421;-85
2022/02/25 04:41:56;;;;;;;;;2.25;2.00;;;;;3.96;68.83;101895.59;5020962;28;45525;-88
2022/02/25 04:44:22;;;;;;;;;2.50;1.00;;;;;4.27;69.08;101937.94;5020800;28;45514;-82
2022/02/25 04:46:48;;;;;;;;;1.00;1.00;;;;;4.27;69.02;101943.16;5020552;28;45536;-80
2022/02/25 04:49:14;;;;;;;;;0.00;0.00;;;;;4.26;69.10;101944.84;5020766;28;45424;-85
2022/02/25 04:51:39;;;;;;;;;4.00;2.00;;;;;4.03;69.09;101930.00;5020431;28;45517;-85
2022/02/25 04:54:04;;;;;;;;;1.00;0.75;;;;;3.87;69.23;101888.88;5021759;28;45238;-83
2022/02/25 04:56:30;;;;;;;;;1.75;1.50;;;;;4.21;69.24;101945.28;5021328;28;45622;-80
2022/02/25 04:58:55;;;;;;;;;1.25;1.00;;;;;3.15;69.23;101766.94;5020680;28;45255;-80
2022/02/25 05:01:21;;;;;;;;;3.50;3.00;;;;;4.21;69.43;101958.28;5021217;28;46589;-88
2022/02/25 05:03:47;;;;;;;;;1.75;1.00;;;;;3.34;69.42;101804.00;5026361;28;45450;-84
2022/02/25 05:06:12;;;;;;;;;0.00;0.00;;;;;3.91;69.34;101912.53;5025334;28;45228;-85
2022/02/25 05:08:38;;;;;;;;;1.00;0.75;;;;;4.18;69.64;101958.03;5022307;28;45360;-85
2022/02/25 05:11:03;;;;;;;;;1.00;1.00;;;;;4.02;69.70;101938.59;5022469;28;45514;-86
2022/02/25 05:13:28;;;;;;;;;0.00;0.00;;;;;3.95;69.57;101917.19;5021885;28;45238;-87
2022/02/25 05:21:23;;;;;;;;;2.00;1.25;;;;;4.02;69.73;101943.81;5028937;28;45794;-80
2022/02/25 05:23:48;;;;;;;;;2.00;1.00;;;;;3.69;69.81;101892.59;5021145;28;45484;-81
2022/02/25 05:26:14;;;;;;;;;1.00;0.00;;;;;3.92;69.58;101945.56;5018497;28;45744;-80
2022/02/25 05:28:39;;;;;;;;;2.75;0.25;;;;;3.76;69.64;101907.03;5034498;28;45408;-82
2022/02/25 05:31:06;;;;;;;;;1.00;1.00;;;;;3.99;70.05;101940.97;5019008;28;47013;-88
2022/02/25 05:33:31;;;;;;;;;0.25;0.25;;;;;4.03;70.04;101952.50;5042740;28;46005;-80
2022/02/25 05:35:59;;;;;;;;;1.50;1.00;;;;;3.62;69.82;101878.22;5032507;28;45373;-80
2022/02/25 05:38:25;;;;;;;;;0.75;0.00;;;;;4.11;69.94;101972.25;5016555;28;45934;-80
2022/02/25 05:40:51;;;;;;;;;2.00;0.00;;;;;4.20;69.91;101988.59;5016252;28;45731;-80
2022/02/25 05:43:16;;;;;;;;;1.00;0.75;;;;;3.94;69.96;101936.16;5018309;28;45401;-79
2022/02/25 05:45:42;;;;;;;;;0.75;0.75;;;;;4.05;70.10;101959.66;5027086;28;45641;-81
2022/02/25 05:48:08;;;;;;;;;0.50;0.00;;;;;3.99;70.00;101951.38;5024275;28;45626;-80
2022/02/25 05:50:33;;;;;;;;;1.00;1.00;;;;;3.71;69.96;101893.66;5026306;28;45531;-80
2022/02/25 05:52:59;;;;;;;;;1.00;0.50;;;;;3.15;70.09;101790.31;5031714;28;45440;-80
2022/02/25 05:55:25;;;;;;;;;0.00;0.00;;;;;3.00;70.01;101785.69;5035833;28;45512;-77
2022/02/25 05:57:51;;;;;;;;;1.25;0.50;;;;;3.50;70.15;101863.34;5026416;28;45557;-82
2022/02/25 06:00:18;;;;;;;;;1.25;1.00;;;;;3.06;69.83;101806.09;5028745;28;46510;-82
2022/02/25 06:02:46;;;;;;;;;1.00;1.00;;;;;3.87;70.52;101935.69;5021685;28;46029;-79
2022/02/25 06:05:13;;;;;;;;;1.00;1.00;;;;;3.00;70.17;101780.50;5030457;28;45317;-78
2022/02/25 06:07:38;;;;;;;;;2.00;1.00;;;;;3.31;70.12;101854.03;5015343;28;45475;-79
2022/02/25 06:10:05;;;;;;;;;1.00;1.00;;;;;4.29;70.44;102007.56;5019229;28;45634;-80
2022/02/25 06:12:30;;;;;;;;;2.00;1.00;;;;;3.94;70.36;101949.16;5015482;28;45599;-81
2022/02/25 06:14:55;;;;;;;;;1.00;0.75;;;;;4.07;70.52;101975.41;5025281;28;45394;-84
2022/02/25 06:17:21;;;;;;;;;0.00;0.00;;;;;3.19;70.25;101828.75;5034576;28;45776;-81
2022/02/25 06:19:46;;;;;;;;;1.00;0.00;;;;;3.72;70.51;101907.56;5015193;28;47149;-82
2022/02/25 06:22:12;;;;;;;;;1.50;1.25;;;;;4.08;70.35;101983.31;5027104;28;45489;-83
2022/02/25 06:24:37;;;;;;;;;1.75;0.00;;;;;4.32;70.46;102032.91;5027187;28;45412;-82
2022/02/25 06:27:03;;;;;;;;;0.50;0.50;;;;;4.03;70.56;101974.22;5023833;28;45375;-84
2022/02/25 06:29:28;;;;;;;;;1.00;0.25;;;;;4.17;70.65;101997.84;5008595;28;46338;-86
2022/02/25 06:31:54;;;;;;;;;2.00;1.00;;;;;3.96;70.33;101966.72;5019010;28;45661;-84
2022/02/25 06:34:19;;;;;;;;;0.75;0.50;;;;;4.36;70.19;102047.97;5023856;28;45882;-88
2022/02/25 06:36:46;;;;;;;;;0.00;0.00;;;;;4.37;70.61;102036.78;5029805;28;45637;-84
2022/02/25 06:39:11;;;;;;;;;1.00;0.00;;;;;4.17;70.38;102008.25;5019809;28;45648;-87
2022/02/25 06:41:37;;;;;;;;;2.00;1.00;;;;;3.95;70.25;101972.72;5029130;28;45420;-86
2022/02/25 06:44:02;;;;;;;;;3.50;2.00;;;;;4.12;70.36;102005.28;5028923;28;45756;-86
2022/02/25 06:46:28;;;;;;;;;0.75;0.00;;;;;4.37;70.65;102055.00;5028922;28;45361;-86
2022/02/25 06:48:54;;;;;;;;;1.25;0.50;;;;;4.38;70.41;102062.97;5019402;28;46594;-88
2022/02/25 06:51:19;;;;;;;;;0.00;0.00;;;;;3.57;70.37;101915.91;5035615;28;45341;-83
2022/02/25 06:53:45;;;;;;;;;0.75;0.00;;;;;4.11;70.59;102003.47;5032754;28;45677;-81
2022/02/25 06:56:10;;;;;;;;;1.00;0.00;;;;;2.99;69.95;101803.75;5029199;28;45534;-86
2022/02/25 06:58:36;;;;;;;;;1.00;1.00;;;;;4.31;70.62;102042.41;5016843;28;45546;-86
2022/02/25 07:01:03;;;;;;;;;1.25;1.25;;;;;4.29;70.52;102046.59;5034827;28;45508;-86
2022/02/25 07:03:29;;;;;;;;;1.00;1.00;;;;;3.31;70.55;101879.13;5025667;28;45731;-84
2022/02/25 07:05:54;;;;;;;;;1.50;1.00;;;;;3.95;70.35;101979.63;5022476;28;45470;-85
2022/02/25 07:08:21;;;;;;;;;2.00;0.00;;;;;4.36;70.17;102048.88;5019687;28;46466;-85
2022/02/25 07:10:47;;;;;;;;;1.00;1.00;;;;;3.97;70.69;101984.16;5023084;28;45494;-85
2022/02/25 07:13:13;;;;;;;;;2.00;2.00;;;;;4.23;70.75;102033.06;5028957;28;45565;-86
2022/02/25 07:15:40;;;;;;;;;1.25;1.00;;;;;4.50;70.65;102078.63;5025730;28;45258;-86
2022/02/25 07:18:06;;;;;;;;;1.00;1.00;;;;;4.55;70.58;102089.41;5022300;28;45355;-86
2022/02/25 07:20:32;;;;;;;;;4.00;2.00;;;;;4.58;70.46;102081.84;5046082;28;45340;-88
2022/02/25 07:22:57;;;;;;;;;30.25;21.50;;;;;4.59;70.33;102081.97;5026148;28;45345;-89
2022/02/25 07:25:23;;;;;;;;;3.50;2.25;;;;;4.61;70.66;102077.78;5017245;28;45679;-88
2022/02/25 07:27:48;;;;;;;;;4.50;4.00;;;;;4.54;70.39;102058.97;5017750;28;46194;-85
2022/02/25 07:30:15;;;;;;;;;25.50;22.00;;;;;4.56;70.34;102060.00;4998779;28;45530;-90
2022/02/25 07:32:41;;;;;;;;;16.25;13.75;;;;;4.31;70.61;102012.88;5034635;28;45483;-87
2022/02/25 07:35:09;;;;;;;;;21.50;19.50;;;;;4.61;70.38;102056.97;5046997;28;45271;-86
2022/02/25 07:37:35;;;;;;;;;261.00;220.50;;;;;4.80;70.24;102085.38;5020639;28;45806;-90
2022/02/25 07:40:00;;;;;;;;;156.00;134.75;;;;;4.12;70.10;101955.84;5031566;28;45368;-85
2022/02/25 07:42:26;;;;;;;;;11.00;9.25;;;;;4.32;69.89;101983.47;5035259;28;45348;-82
2022/02/25 07:44:51;;;;;;;;;2.00;1.00;;;;;4.87;70.35;102078.94;5023390;28;45483;-81
2022/02/25 07:47:19;;;;;;;;;9.25;8.00;;;;;4.77;70.05;102055.56;5031444;28;46146;-88
2022/02/25 07:49:46;;;;;;;;;4.50;4.50;;;;;4.58;69.93;102006.34;5034188;28;47175;-89
2022/02/25 07:52:12;;;;;;;;;5.75;5.75;;;;;4.48;70.04;101981.25;5019195;28;45464;-82
2022/02/25 07:54:37;;;;;;;;;2.75;2.25;;;;;4.88;70.24;102067.75;5015540;28;45586;-80
2022/02/25 07:57:02;;;;;;;;;3.67;3.67;;;;;5.03;70.15;102100.22;5021769;28;46578;-85
2022/02/25 07:59:28;;;;;;;;;9.75;7.00;;;;;3.70;69.85;101851.94;5015594;28;45520;-84
2022/02/25 08:01:53;;;;;;;;;26.25;26.25;;;;;5.00;69.79;102062.59;5021718;28;46891;-78
2022/02/25 08:04:18;;;;;;;;;27.00;23.75;;;;;4.57;69.66;101989.81;5021019;28;45617;-81
2022/02/25 08:06:45;;;;;;;;;83.50;66.75;;;;;4.65;69.91;101995.63;5023681;28;45645;-82
2022/02/25 08:09:11;;;;;;;;;419.25;357.00;;;;;5.27;69.93;102105.50;5025657;28;45524;-81
2022/02/25 08:11:37;;;;;;;;;71.50;55.00;;;;;5.14;69.95;102078.50;5018994;28;45503;-85
2022/02/25 08:14:03;;;;;;;;;61.75;51.25;;;;;4.95;69.49;102017.03;5024769;28;45408;-80
2022/02/25 08:16:30;;;;;;;;;31.25;31.00;;;;;5.04;69.32;102036.88;5038120;28;46421;-81
2022/02/25 08:18:55;;;;;;;;;93.25;75.00;;;;;5.07;69.65;102037.09;5015984;28;45736;-84
2022/02/25 08:21:20;;;;;;;;;79.00;64.50;;;;;5.10;69.41;102034.75;5028711;28;45551;-80
2022/02/25 08:23:46;;;;;;;;;31.75;30.25;;;;;5.65;69.35;102121.50;5043786;28;45499;-83
2022/02/25 08:26:11;;;;;;;;;40.00;34.33;;;;;4.61;69.08;101915.47;5024561;28;46915;-80
2022/02/25 08:28:37;;;;;;;;;72.25;55.75;;;;;5.89;69.32;102118.13;5042106;28;45289;-80
2022/02/25 08:31:03;;;;;;;;;30.00;29.50;;;;;5.23;69.03;101973.16;5033265;28;45536;-81
2022/02/25 08:33:29;;;;;;;;;13.00;11.50;;;;;5.07;68.59;101930.28;5020019;28;45484;-82
2022/02/25 08:35:54;;;;;;;;;16.75;16.00;;;;;5.09;68.36;101927.81;5028752;28;46448;-88
2022/02/25 08:38:21;;;;;;;;;110.00;100.25;;;;;6.27;68.33;102125.34;5022337;28;45442;-87
2022/02/25 08:40:46;;;;;;;;;14.50;11.75;;;;;6.04;67.88;102080.97;5033247;28;45405;-88
2022/02/25 08:43:13;;;;;;;;;183.00;165.67;;;;;6.31;67.94;102140.44;5019513;28;45640;-87
2022/02/25 08:45:41;;;;;;;;;64.25;51.75;;;;;6.28;68.11;102134.09;5021144;28;45388;-89
2022/02/25 08:48:07;;;;;;;;;18.75;16.00;;;;;6.02;68.12;102088.69;5033284;28;45561;-87
2022/02/25 08:50:32;;;;;;;;;8.25;8.25;;;;;5.97;68.09;102090.06;5026562;28;45600;-86
2022/02/25 08:52:57;;;;;;;;;2.50;1.50;;;;;5.59;68.14;102017.63;5019591;28;45557;-82
2022/02/25 08:55:24;;;;;;;;;5.00;5.00;;;;;6.33;68.09;102144.06;5030759;28;46324;-84
2022/02/25 08:57:50;;;;;;;;;51.75;42.75;;;;;6.18;67.84;102116.81;5015005;28;45616;-88
2022/02/25 09:00:18;;;;;;;;;23.25;21.50;;;;;5.50;67.73;101993.47;5023528;28;45605;-81
2022/02/25 09:02:45;;;;;;;;;5.00;3.00;;;;;6.05;67.99;102108.88;5009461;28;45349;-84
2022/02/25 09:05:11;;;;;;;;;6.75;5.50;;;;;5.79;67.83;102076.50;5029422;28;45554;-80
2022/02/25 09:07:36;;;;;;;;;2.25;2.25;;;;;6.34;68.09;102160.63;5022555;28;45726;-79
2022/02/25 09:10:04;;;;;;;;;8.25;7.75;;;;;5.69;68.23;102064.47;5031453;28;45659;-88
2022/02/25 09:12:29;;;;;;;;;29.25;29.25;;;;;5.08;68.19;101920.78;5014831;28;46599;-89
2022/02/25 09:14:55;;;;;;;;;3.00;2.00;;;;;6.49;68.30;102164.38;5005830;28;46957;-78
2022/02/25 09:17:20;;;;;;;;;8.00;7.25;;;;;5.16;68.08;101932.69;5010928;28;45407;-82
2022/02/25 09:19:46;;;;;;;;;1.00;1.00;;;;;5.48;68.16;101969.00;5029000;28;45601;-89
2022/02/25 09:22:12;;;;;;;;;2.50;2.00;;;;;5.50;68.00;101962.16;5032402;28;45371;-83
2022/02/25 09:24:38;;;;;;;;;6.00;6.00;;;;;6.56;68.14;102143.16;5010983;28;48911;-80
2022/02/25 09:27:04;;;;;;;;;5.00;3.00;;;;;5.79;67.83;101984.28;5046224;28;45421;-80
2022/02/25 09:29:32;;;;;;;;;16.25;14.25;;;;;6.29;68.18;102066.31;5032215;28;45486;-80
2022/02/25 09:31:58;;;;;;;;;12.75;10.75;;;;;6.07;67.75;102019.47;5012942;28;45417;-80
2022/02/25 09:34:23;;;;;;;;;5.25;4.75;;;;;6.30;67.65;102051.53;5033826;28;47488;-80
2022/02/25 09:36:49;;;;;;;;;6.00;4.50;;;;;7.17;67.34;102188.47;5024339;28;45518;-80
2022/02/25 09:39:15;;;;;;;;;9.00;8.00;;;;;7.00;67.50;102149.78;5015698;28;45503;-83
2022/02/25 09:41:44;;;;;;;;;11.00;8.50;;;;;7.07;67.43;102145.09;5032187;28;45494;-81
2022/02/25 09:44:11;;;;;;;;;4.75;4.50;;;;;7.41;67.34;102192.81;5033836;28;46354;-92
2022/02/25 09:46:36;;;;;;;;;3.00;3.00;;;;;6.55;67.07;102054.22;5038775;28;45181;-88
2022/02/25 09:49:02;;;;;;;;;2.00;2.00;;;;;7.60;67.01;102205.50;5030113;28;45309;-83
2022/02/25 09:51:28;;;;;;;;;9.00;8.75;;;;;6.46;66.63;102002.25;5019387;28;45553;-80
2022/02/25 09:53:54;;;;;;;;;7.00;3.75;;;;;7.58;66.38;102172.16;5023586;28;45438;-91
2022/02/25 09:56:22;;;;;;;;;3.25;2.75;;;;;7.77;66.19;102185.72;5034208;28;45524;-83
2022/02/25 09:58:47;;;;;;;;;2.00;1.75;;;;;6.77;66.08;101999.19;5034242;28;45744;-81
2022/02/25 10:01:13;;;;;;;;;6.00;2.00;;;;;6.94;65.94;102036.13;5038222;28;45266;-86
2022/02/25 10:03:38;;;;;;;;;2.75;1.25;;;;;7.16;65.87;102059.47;5025500;28;45768;-81
2022/02/25 10:06:06;;;;;;;;;5.50;5.00;;;;;7.07;65.44;102023.94;5033440;28;45491;-80
2022/02/25 10:08:33;;;;;;;;;2.00;2.00;;;;;7.43;65.41;102077.84;5019615;28;45353;-80
2022/02/25 10:11:00;;;;;;;;;3.50;3.50;;;;;8.25;65.33;102219.56;5017828;28;45845;-82
2022/02/25 10:13:27;;;;;;;;;2.25;1.00;;;;;7.96;64.83;102165.22;5022445;28;48114;-80
2022/02/25 10:15:56;;;;;;;;;3.00;2.00;;;;;8.35;64.42;102222.81;5045884;28;45181;-83
2022/02/25 10:18:25;;;;;;;;;1.00;0.75;;;;;8.40;64.64;102230.22;5035737;28;45455;-86
2022/02/25 10:21:10;;;;;;;;;3.00;2.00;;;;;7.33;64.70;102039.69;5033931;28;45408;-80
2022/02/25 10:23:38;;;;;;;;;2.25;1.75;;;;;8.56;64.90;102232.13;5022045;28;45671;-84
2022/02/25 10:26:06;;;;;;;;;2.00;1.50;;;;;8.63;64.49;102237.00;5022934;28;45414;-82
2022/02/25 10:28:35;;;;;;;;;2.75;1.50;;;;;8.69;64.49;102233.88;5022438;28;45552;-83
2022/02/25 10:31:22;;;;;;;;;3.50;2.00;;;;;7.72;64.22;102061.50;5032989;28;45388;-81
2022/02/25 10:34:03;;;;;;;;;2.00;2.00;;;;;7.78;64.14;102072.38;5006084;28;45582;-83
2022/02/25 10:36:41;;;;;;;;;4.50;2.75;;;;;8.88;63.96;102243.84;5027156;28;45228;-80
2022/02/25 10:39:08;;;;;;;;;3.00;3.00;;;;;8.91;64.06;102244.03;5036277;28;45448;-91
2022/02/25 10:41:33;;;;;;;;;3.00;3.00;;;;;8.66;64.00;102187.38;5052178;28;44930;-90
2022/02/25 10:43:58;;;;;;;;;22.50;19.75;;;;;7.97;64.05;102054.47;5050191;28;45054;-80
2022/02/25 10:46:24;;;;;;;;;14.00;13.25;;;;;8.77;64.00;102182.88;5043430;28;45158;-82
2022/02/25 10:48:49;;;;;;;;;55.00;45.25;;;;;8.22;63.81;102104.13;5037434;28;45206;-82
2022/02/25 10:51:22;;;;;;;;;70.75;56.25;;;;;9.19;63.60;102252.88;5026790;28;45692;-80
2022/02/25 10:53:51;;;;;;;;;2.00;1.50;;;;;8.66;63.36;102134.06;5009683;28;47793;-80
2022/02/25 10:56:19;;;;;;;;;5.00;4.00;;;;;8.19;63.37;102028.00;5037925;28;45542;-82
2022/02/25 10:58:55;;;;;;;;;15.25;11.00;;;;;9.59;63.41;102257.13;5020425;28;45950;-81
2022/02/25 11:01:23;;;;;;;;;9.00;8.00;;;;;9.75;62.94;102234.56;5020391;28;46067;-95
2022/02/25 11:04:10;;;;;;;;;11.25;9.75;;;;;9.88;62.71;102235.31;5033494;28;45871;-85
2022/02/25 11:06:36;;;;;;;;;3.25;3.00;;;;;9.30;62.28;102104.03;5044445;28;46884;-85
2022/02/25 11:09:07;;;;;;;;;59.50;49.00;;;;;9.61;62.00;102135.69;5025778;28;45340;-80
2022/02/25 11:11:34;;;;;;;;;16.25;14.75;;;;;10.19;61.88;102238.06;5032228;28;45540;-86
2022/02/25 11:14:03;;;;;;;;;56.75;47.25;;;;;9.88;61.47;102188.94;5028442;28;45672;-83
2022/02/25 11:16:31;;;;;;;;;9.75;7.75;;;;;10.31;61.22;102245.00;5022511;28;45319;-81
2022/02/25 11:19:01;;;;;;;;;3.75;3.00;;;;;10.45;61.12;102235.31;5029214;28;45515;-82
2022/02/25 11:21:27;;;;;;;;;6.00;4.00;;;;;9.77;60.33;102135.78;5023053;28;45815;-81
2022/02/25 11:23:53;;;;;;;;;1.00;1.00;;;;;10.33;60.10;102235.47;5025762;28;45630;-86
2022/02/25 11:26:21;;;;;;;;;3.00;1.00;;;;;9.43;60.19;102061.97;5027272;28;45563;-87
2022/02/25 11:28:47;;;;;;;;;46.00;38.50;;;;;10.03;60.07;102133.78;5041736;28;45538;-82
2022/02/25 11:31:23;;;;;;;;;15.50;15.00;;;;;10.10;59.00;102130.72;5038996;28;45131;-87